Time;durP1;ratioP1;P1;durP2;ratioP2;P2;SDS_P1;SDS_P2;PMS_P1;PMS_P2;Temp;Humidity;BMP_temperature;BMP_pressure;BME280_temperature;BME280_humidity;BME280_pressure;Samples;Min_cycle;Max_cycle;Signal;HPM_P1;HPM_P2
2024/03/06 00:02:08;;;;;;;935.13;880.60;;;8.10;99.90;;;;;;5051134;28;20632;-71
2024/03/06 00:04:34;;;;;;;917.30;863.67;;;8.00;99.90;;;;;;5050832;28;20192;-71
2024/03/06 00:07:00;;;;;;;874.87;823.67;;;7.90;99.90;;;;;;5051352;28;20412;-71
2024/03/06 00:09:29;;;;;;;903.77;851.07;;;7.80;99.90;;;;;;5051142;28;20993;-72
2024/03/06 00:11:55;;;;;;;858.87;809.87;;;7.70;99.90;;;;;;5051067;28;20413;-71
2024/03/06 00:14:22;;;;;;;845.07;796.70;;;7.60;99.90;;;;;;5052267;28;21088;-71
2024/03/06 00:16:51;;;;;;;850.53;800.97;;;7.60;99.90;;;;;;5054763;28;20450;-72
2024/03/06 00:19:18;;;;;;;849.37;799.87;;;7.70;99.90;;;;;;5054913;28;20411;-71
2024/03/06 00:21:43;;;;;;;863.13;813.13;;;7.80;99.90;;;;;;5054851;28;20403;-71
2024/03/06 00:24:12;;;;;;;840.93;792.43;;;7.90;99.90;;;;;;5054635;28;20790;-71
2024/03/06 00:26:40;;;;;;;880.17;828.63;;;7.90;99.90;;;;;;5054791;28;20215;-71
2024/03/06 00:29:06;;;;;;;879.17;829.10;;;7.90;99.90;;;;;;5036914;28;20419;-71
2024/03/06 00:31:32;;;;;;;896.40;844.43;;;8.00;99.90;;;;;;5054974;28;20422;-71
2024/03/06 00:33:57;;;;;;;873.47;822.60;;;8.20;99.90;;;;;;5054305;28;20172;-71
2024/03/06 00:36:23;;;;;;;896.43;844.63;;;8.00;99.90;;;;;;5054771;28;20465;-71
2024/03/06 00:38:48;;;;;;;885.60;833.20;;;8.20;99.90;;;;;;5054702;28;20278;-72
2024/03/06 00:41:14;;;;;;;889.50;837.93;;;8.30;99.90;;;;;;5054629;28;20169;-71
2024/03/06 00:43:40;;;;;;;890.30;837.27;;;8.10;99.90;;;;;;5054204;28;20655;-71
2024/03/06 00:46:05;;;;;;;917.90;862.00;;;8.40;99.90;;;;;;5054454;28;20243;-71
2024/03/06 00:48:31;;;;;;;913.03;857.00;;;8.30;99.90;;;;;;5054624;28;20784;-71
2024/03/06 00:50:56;;;;;;;905.57;847.60;;;8.50;99.90;;;;;;5054355;28;20172;-71
2024/03/06 00:53:22;;;;;;;942.87;885.60;;;8.30;99.90;;;;;;5054063;28;20174;-71
2024/03/06 00:55:47;;;;;;;884.40;827.47;;;8.50;99.90;;;;;;5054133;28;20256;-71
2024/03/06 00:58:13;;;;;;;922.77;858.23;;;8.40;99.90;;;;;;5054249;28;20599;-71
2024/03/06 01:00:39;;;;;;;916.37;856.37;;;8.40;99.90;;;;;;5054023;28;20656;-71
2024/03/06 01:03:04;;;;;;;905.67;849.20;;;8.50;99.90;;;;;;5053868;28;20174;-71
2024/03/06 01:05:30;;;;;;;881.10;829.03;;;8.40;99.90;;;;;;5054120;28;20190;-71
2024/03/06 01:07:56;;;;;;;910.90;856.00;;;8.30;99.90;;;;;;5054033;28;20260;-71
2024/03/06 01:10:22;;;;;;;912.03;856.67;;;8.20;99.90;;;;;;5053895;28;20603;-71
2024/03/06 01:12:48;;;;;;;905.63;851.03;;;8.10;99.90;;;;;;5035738;28;20419;-71
2024/03/06 01:15:14;;;;;;;886.43;835.23;;;8.10;99.90;;;;;;5053730;28;20481;-71
2024/03/06 01:17:39;;;;;;;867.47;816.80;;;7.90;99.90;;;;;;5053776;28;20202;-71
2024/03/06 01:20:09;;;;;;;865.43;815.43;;;7.70;99.90;;;;;;5053864;28;20402;-71
2024/03/06 01:22:35;;;;;;;868.93;818.93;;;7.60;99.90;;;;;;5053594;28;20181;-71
2024/03/06 01:25:00;;;;;;;820.30;772.63;;;7.40;99.90;;;;;;5053203;28;20423;-71
2024/03/06 01:27:27;;;;;;;865.17;813.47;;;7.40;99.90;;;;;;5053119;28;20443;-71
2024/03/06 01:29:52;;;;;;;856.17;805.93;;;7.40;99.90;;;;;;5053556;28;20586;-71
2024/03/06 01:32:18;;;;;;;820.07;772.33;;;7.40;99.90;;;;;;5053547;28;20496;-71
2024/03/06 01:34:43;;;;;;;860.27;810.40;;;7.40;99.90;;;;;;5053082;28;20214;-71
2024/03/06 01:37:09;;;;;;;832.53;783.90;;;7.40;99.90;;;;;;5053445;28;20196;-71
2024/03/06 01:39:35;;;;;;;820.50;774.00;;;7.50;99.90;;;;;;5053504;28;20167;-71
2024/03/06 01:42:02;;;;;;;844.50;795.73;;;7.60;99.90;;;;;;5053392;28;20172;-71
2024/03/06 01:44:27;;;;;;;856.10;806.93;;;7.40;99.90;;;;;;5052972;28;20528;-71
2024/03/06 01:46:54;;;;;;;823.80;777.33;;;7.50;99.90;;;;;;5053302;28;20438;-71
2024/03/06 01:49:21;;;;;;;813.30;766.60;;;7.20;99.90;;;;;;5053394;28;20173;-71
2024/03/06 01:51:51;;;;;;;797.80;753.70;;;7.10;99.90;;;;;;5053205;28;20497;-71
2024/03/06 01:54:17;;;;;;;768.30;726.10;;;7.00;99.90;;;;;;5052865;28;20433;-71
2024/03/06 01:56:46;;;;;;;787.13;743.17;;;6.90;99.90;;;;;;5052936;28;20519;-71
2024/03/06 01:59:13;;;;;;;776.53;734.17;;;6.80;99.90;;;;;;5053056;28;20432;-71
2024/03/06 02:01:40;;;;;;;787.27;743.17;;;6.70;99.90;;;;;;5053047;28;20428;-71
2024/03/06 02:04:09;;;;;;;797.87;753.57;;;6.80;99.90;;;;;;5052692;28;20445;-71
2024/03/06 02:06:35;;;;;;;777.50;735.60;;;6.80;99.90;;;;;;5053069;28;20434;-71
2024/03/06 02:09:03;;;;;;;774.73;732.63;;;6.70;99.90;;;;;;5052962;28;20939;-70
2024/03/06 02:11:29;;;;;;;812.03;767.63;;;6.70;99.90;;;;;;5052931;28;20924;-71
2024/03/06 02:13:55;;;;;;;769.63;726.30;;;6.70;99.90;;;;;;5052458;28;20406;-71
2024/03/06 02:16:20;;;;;;;734.40;694.93;;;6.60;99.90;;;;;;5052699;28;20458;-71
2024/03/06 02:18:53;;;;;;;791.60;748.53;;;6.50;99.90;;;;;;5052624;28;20402;-71
2024/03/06 02:21:23;;;;;;;741.50;702.60;;;6.40;99.90;;;;;;5052614;28;20517;-71
2024/03/06 02:23:49;;;;;;;754.10;713.10;;;6.10;99.90;;;;;;5052097;28;20471;-71
2024/03/06 02:26:15;;;;;;;685.40;649.77;;;6.40;99.90;;;;;;5052557;28;20448;-71
2024/03/06 02:28:47;;;;;;;740.57;700.93;;;6.40;99.90;;;;;;5052613;28;20403;-70
2024/03/06 02:31:13;;;;;;;718.57;680.00;;;6.40;99.90;;;;;;5052501;28;20719;-71
2024/03/06 02:33:39;;;;;;;744.20;704.53;;;6.50;99.90;;;;;;5052220;28;20486;-71
2024/03/06 02:36:05;;;;;;;726.83;688.60;;;6.50;99.90;;;;;;5052366;28;20500;-71
2024/03/06 02:38:31;;;;;;;713.97;675.93;;;6.40;99.90;;;;;;5052327;28;20829;-70
2024/03/06 02:40:56;;;;;;;726.37;688.27;;;6.50;99.90;;;;;;5052387;28;20404;-70
2024/03/06 02:43:22;;;;;;;669.63;634.10;;;6.40;99.90;;;;;;5051958;28;20168;-70
2024/03/06 02:45:47;;;;;;;697.73;662.03;;;6.30;99.90;;;;;;5052209;28;20662;-71
2024/03/06 02:48:13;;;;;;;664.03;630.33;;;6.20;99.90;;;;;;5052187;28;20172;-70
2024/03/06 02:50:39;;;;;;;667.67;633.60;;;6.10;99.90;;;;;;5052215;28;20172;-70
2024/03/06 02:53:04;;;;;;;657.63;624.40;;;6.10;99.90;;;;;;5051779;28;20634;-70
2024/03/06 02:55:30;;;;;;;709.33;672.63;;;6.10;99.90;;;;;;5052009;28;20215;-71
2024/03/06 02:57:56;;;;;;;670.33;635.57;;;6.10;99.90;;;;;;5051886;28;20199;-71
2024/03/06 03:00:22;;;;;;;657.03;623.57;;;6.00;99.90;;;;;;5052143;28;20635;-70
2024/03/06 03:02:47;;;;;;;661.37;626.53;;;5.90;99.90;;;;;;5051719;28;20413;-71
2024/03/06 03:05:13;;;;;;;654.33;620.73;;;5.90;99.90;;;;;;5051850;28;20238;-71
2024/03/06 03:07:38;;;;;;;651.77;618.33;;;5.80;99.90;;;;;;5051774;28;20175;-70
2024/03/06 03:10:04;;;;;;;658.87;625.80;;;5.60;99.90;;;;;;5051786;28;20179;-70
2024/03/06 03:12:30;;;;;;;640.37;608.27;;;5.50;99.90;;;;;;5051737;28;20183;-71
2024/03/06 03:14:56;;;;;;;616.50;585.90;;;5.30;99.90;;;;;;5051774;28;20448;-70
2024/03/06 03:17:22;;;;;;;645.43;612.53;;;5.40;99.90;;;;;;5051599;28;20546;-70
2024/03/06 03:19:47;;;;;;;628.43;596.87;;;5.50;99.90;;;;;;5051641;28;20176;-69
2024/03/06 03:22:13;;;;;;;623.47;592.40;;;5.50;99.90;;;;;;5051558;28;20164;-70
2024/03/06 03:24:41;;;;;;;629.47;597.73;;;5.40;99.90;;;;;;5051470;28;20192;-70
2024/03/06 03:27:07;;;;;;;611.67;581.00;;;5.50;99.90;;;;;;5051526;28;20176;-70
2024/03/06 03:29:33;;;;;;;621.30;591.03;;;5.50;99.90;;;;;;5051623;28;20406;-71
2024/03/06 03:31:58;;;;;;;603.53;573.27;;;5.50;99.90;;;;;;5051502;28;20771;-71
2024/03/06 03:34:24;;;;;;;637.53;605.20;;;5.50;99.90;;;;;;5051067;28;20641;-71
2024/03/06 03:36:50;;;;;;;665.13;631.63;;;5.40;99.90;;;;;;5051351;28;20253;-70
2024/03/06 03:39:16;;;;;;;647.37;615.00;;;5.40;99.90;;;;;;5051424;28;20171;-71
2024/03/06 03:41:45;;;;;;;624.37;592.90;;;5.30;99.90;;;;;;5051314;28;20176;-71
2024/03/06 03:44:15;;;;;;;637.17;606.10;;;5.30;99.90;;;;;;5051055;28;20427;-70
2024/03/06 03:46:42;;;;;;;641.83;610.03;;;5.20;99.90;;;;;;5051343;28;20460;-70
2024/03/06 03:49:08;;;;;;;606.40;576.23;;;5.30;99.90;;;;;;5052554;28;21014;-70
2024/03/06 03:51:35;;;;;;;609.30;579.00;;;5.20;99.90;;;;;;5055435;28;20488;-71
2024/03/06 03:54:00;;;;;;;565.30;537.30;;;5.20;99.90;;;;;;5055081;28;20465;-70
2024/03/06 03:56:26;;;;;;;589.17;559.90;;;5.00;99.90;;;;;;5055316;28;20500;-70
2024/03/06 03:58:51;;;;;;;535.50;509.60;;;5.00;99.90;;;;;;5055356;28;20168;-70
2024/03/06 04:01:17;;;;;;;568.43;541.00;;;5.00;99.90;;;;;;5055283;28;20653;-70
2024/03/06 04:03:44;;;;;;;565.23;537.73;;;5.10;99.90;;;;;;5054919;28;20172;-70
2024/03/06 04:06:10;;;;;;;544.63;517.87;;;5.00;99.90;;;;;;5055143;28;20176;-70
2024/03/06 04:08:37;;;;;;;583.37;555.13;;;5.20;99.90;;;;;;5055127;28;20923;-71
2024/03/06 04:11:03;;;;;;;594.87;566.33;;;5.20;99.90;;;;;;5055263;28;20957;-70
2024/03/06 04:13:29;;;;;;;563.03;535.33;;;5.20;99.90;;;;;;5054818;28;20904;-70
2024/03/06 04:15:55;;;;;;;526.60;501.03;;;5.30;99.90;;;;;;5054913;28;20425;-71
2024/03/06 04:18:21;;;;;;;540.57;514.30;;;5.30;99.90;;;;;;5055280;28;20630;-71
2024/03/06 04:20:47;;;;;;;525.80;499.93;;;5.20;99.90;;;;;;5055052;28;20394;-71
2024/03/06 04:23:12;;;;;;;632.07;599.97;;;5.30;99.90;;;;;;5054702;28;20168;-71
2024/03/06 04:25:39;;;;;;;543.00;516.90;;;5.30;99.90;;;;;;5054922;28;20234;-71
2024/03/06 04:28:07;;;;;;;548.97;522.47;;;5.30;99.90;;;;;;5055191;28;20255;-71
2024/03/06 04:30:33;;;;;;;624.00;593.50;;;5.30;99.90;;;;;;5054864;28;20413;-71
2024/03/06 04:32:59;;;;;;;709.83;673.23;;;5.40;99.90;;;;;;5054548;28;20461;-71
2024/03/06 04:35:24;;;;;;;606.93;577.80;;;5.50;99.90;;;;;;5054656;28;20450;-71
2024/03/06 04:37:50;;;;;;;609.87;580.07;;;5.60;99.90;;;;;;5054654;28;20614;-71
2024/03/06 04:40:17;;;;;;;579.07;549.73;;;5.60;99.90;;;;;;5054951;28;20168;-71
2024/03/06 04:42:46;;;;;;;554.70;527.40;;;5.60;99.90;;;;;;5054421;28;20259;-71
2024/03/06 04:45:15;;;;;;;626.70;595.53;;;5.60;99.90;;;;;;5054487;28;20479;-71
2024/03/06 04:47:41;;;;;;;618.63;588.13;;;5.60;99.90;;;;;;5054472;28;20405;-71
2024/03/06 04:50:11;;;;;;;601.87;572.23;;;5.60;99.90;;;;;;5054409;28;20406;-70
2024/03/06 04:52:38;;;;;;;579.27;550.77;;;5.60;99.90;;;;;;5054007;28;20410;-71
2024/03/06 04:55:04;;;;;;;577.83;548.67;;;5.50;99.90;;;;;;5054217;28;20517;-70
2024/03/06 04:57:30;;;;;;;608.53;578.97;;;5.60;99.90;;;;;;5054124;28;20915;-71
2024/03/06 04:59:58;;;;;;;590.20;561.20;;;5.60;99.90;;;;;;5035885;28;20487;-72
2024/03/06 05:02:25;;;;;;;608.53;578.57;;;5.60;99.90;;;;;;5053556;28;21400;-72
2024/03/06 05:04:50;;;;;;;595.53;565.27;;;5.70;99.90;;;;;;5054419;28;20422;-71
2024/03/06 05:07:16;;;;;;;640.73;608.73;;;5.80;99.90;;;;;;5054189;28;20853;-72
2024/03/06 05:09:41;;;;;;;622.00;590.80;;;5.80;99.90;;;;;;5053914;28;20243;-72
2024/03/06 05:12:08;;;;;;;640.93;608.07;;;5.80;99.90;;;;;;5053790;28;20639;-71
2024/03/06 05:14:33;;;;;;;641.47;609.27;;;5.90;99.90;;;;;;5054072;28;20215;-72
2024/03/06 05:16:59;;;;;;;716.30;678.27;;;5.80;99.90;;;;;;5054133;28;20834;-73
2024/03/06 05:19:31;;;;;;;673.63;640.13;;;5.90;99.90;;;;;;5053835;28;20169;-73
2024/03/06 05:22:00;;;;;;;646.80;613.03;;;6.00;99.90;;;;;;5053963;28;20226;-73
2024/03/06 05:24:26;;;;;;;647.30;614.20;;;6.00;99.90;;;;;;5053387;28;20480;-71
2024/03/06 05:26:51;;;;;;;634.87;602.97;;;6.00;99.90;;;;;;5035991;28;20406;-72
2024/03/06 05:29:17;;;;;;;668.43;633.23;;;6.00;99.90;;;;;;5053594;28;20414;-72
2024/03/06 05:31:42;;;;;;;681.20;646.93;;;6.00;99.90;;;;;;5053649;28;20607;-73
2024/03/06 05:34:08;;;;;;;890.30;839.40;;;6.00;99.90;;;;;;5053117;28;20204;-73
2024/03/06 05:36:34;;;;;;;639.70;607.77;;;6.00;99.90;;;;;;5053489;28;20199;-72
2024/03/06 05:38:59;;;;;;;822.97;775.83;;;5.90;99.90;;;;;;5053415;28;20252;-72
2024/03/06 05:41:25;;;;;;;599.27;569.87;;;5.90;99.90;;;;;;5053411;28;20160;-73
2024/03/06 05:43:50;;;;;;;604.10;573.53;;;5.80;99.90;;;;;;5053001;28;20165;-73
2024/03/06 05:46:16;;;;;;;661.03;628.13;;;5.90;99.90;;;;;;5053316;28;20254;-72
2024/03/06 05:48:42;;;;;;;625.77;594.80;;;6.00;99.90;;;;;;5053460;28;20179;-72
2024/03/06 05:51:07;;;;;;;611.43;580.73;;;5.90;99.90;;;;;;5053207;28;20168;-72
2024/03/06 05:53:38;;;;;;;655.17;622.63;;;6.00;99.90;;;;;;5053355;28;20414;-71
2024/03/06 05:56:06;;;;;;;661.70;628.13;;;6.00;99.90;;;;;;5035388;28;20191;-72
2024/03/06 05:58:31;;;;;;;911.50;857.87;;;5.90;99.90;;;;;;5053543;28;20513;-71
2024/03/06 06:00:57;;;;;;;663.70;630.03;;;5.90;99.90;;;;;;5053162;28;20463;-71
2024/03/06 06:03:22;;;;;;;752.50;713.23;;;6.00;99.90;;;;;;5052816;28;20175;-71
2024/03/06 06:05:48;;;;;;;622.33;591.40;;;6.00;99.90;;;;;;5053094;28;20600;-71
2024/03/06 06:08:14;;;;;;;672.73;639.23;;;5.90;99.90;;;;;;5053081;28;20191;-71
2024/03/06 06:10:39;;;;;;;750.57;712.30;;;5.90;99.90;;;;;;5053058;28;20171;-70
2024/03/06 06:13:05;;;;;;;586.47;557.50;;;5.80;99.90;;;;;;5052267;28;20634;-72
2024/03/06 06:15:30;;;;;;;638.03;606.70;;;5.70;99.90;;;;;;5052810;28;20191;-71
2024/03/06 06:17:56;;;;;;;584.73;556.13;;;5.70;99.90;;;;;;5052992;28;20200;-72
2024/03/06 06:20:22;;;;;;;627.97;596.57;;;5.70;99.90;;;;;;5053507;28;20238;-70
2024/03/06 06:22:47;;;;;;;610.90;580.93;;;5.70;99.90;;;;;;5052703;28;20182;-72
2024/03/06 06:25:13;;;;;;;596.57;566.90;;;5.70;99.90;;;;;;5052797;28;20207;-71
2024/03/06 06:27:39;;;;;;;564.77;536.70;;;5.70;99.90;;;;;;5052798;28;20639;-72
2024/03/06 06:30:05;;;;;;;641.33;609.30;;;5.70;99.90;;;;;;5052882;28;20414;-72
2024/03/06 06:32:31;;;;;;;619.57;589.53;;;5.70;99.90;;;;;;5035185;28;20215;-71
2024/03/06 06:34:57;;;;;;;728.63;691.13;;;5.70;99.90;;;;;;5052540;28;20485;-72
2024/03/06 06:37:23;;;;;;;623.73;593.33;;;5.70;99.90;;;;;;5052818;28;20210;-71
2024/03/06 06:39:49;;;;;;;598.23;568.10;;;5.80;99.90;;;;;;5053066;28;20410;-71
2024/03/06 06:42:14;;;;;;;576.90;548.53;;;5.80;99.90;;;;;;5052890;28;20179;-71
2024/03/06 06:44:41;;;;;;;600.70;571.20;;;5.80;99.90;;;;;;5052371;28;20906;-70
2024/03/06 06:47:07;;;;;;;637.60;606.20;;;5.80;99.90;;;;;;5053200;28;20587;-72
2024/03/06 06:49:33;;;;;;;681.27;646.57;;;5.80;99.90;;;;;;5053064;28;20410;-71
2024/03/06 06:51:59;;;;;;;578.90;550.50;;;5.80;99.90;;;;;;5053179;28;20184;-71
2024/03/06 06:54:25;;;;;;;727.17;687.37;;;5.80;99.90;;;;;;5052773;28;20500;-70
2024/03/06 06:56:50;;;;;;;738.43;699.07;;;5.90;99.90;;;;;;5052513;28;20195;-71
2024/03/06 06:59:16;;;;;;;580.33;552.13;;;5.90;99.90;;;;;;5052644;28;20554;-71
2024/03/06 07:01:41;;;;;;;566.33;538.67;;;6.00;99.90;;;;;;5052487;28;20249;-72
2024/03/06 07:04:07;;;;;;;574.97;546.60;;;6.00;99.90;;;;;;5051878;28;20229;-71
2024/03/06 07:06:32;;;;;;;922.33;864.90;;;6.00;99.90;;;;;;5052263;28;20172;-70
2024/03/06 07:08:58;;;;;;;603.43;572.40;;;6.10;99.90;;;;;;5052389;28;20169;-71
2024/03/06 07:11:24;;;;;;;956.60;889.80;;;6.20;99.90;;;;;;5052407;28;20167;-71
2024/03/06 07:13:49;;;;;;;657.80;622.83;;;6.40;99.90;;;;;;5052213;28;20549;-71
2024/03/06 07:16:15;;;;;;;629.23;597.97;;;6.40;99.90;;;;;;5052313;28;20190;-71
2024/03/06 07:18:40;;;;;;;659.67;626.77;;;6.40;99.90;;;;;;5052253;28;20214;-70
2024/03/06 07:21:06;;;;;;;692.93;655.67;;;6.50;99.90;;;;;;5051777;28;20183;-71
2024/03/06 07:23:31;;;;;;;635.60;603.40;;;6.60;99.90;;;;;;5050695;28;20211;-72
2024/03/06 07:25:59;;;;;;;652.83;619.03;;;6.70;99.90;;;;;;5051660;28;20195;-71
2024/03/06 07:28:25;;;;;;;666.67;632.70;;;6.80;99.90;;;;;;5051914;28;20181;-71
2024/03/06 07:30:51;;;;;;;665.10;631.73;;;6.90;99.90;;;;;;5051879;28;20411;-70
2024/03/06 07:33:16;;;;;;;650.97;618.67;;;6.90;99.90;;;;;;5051569;28;20406;-70
2024/03/06 07:35:42;;;;;;;717.77;681.00;;;7.00;99.90;;;;;;5051427;28;20441;-72
2024/03/06 07:38:08;;;;;;;701.47;665.57;;;7.10;99.90;;;;;;5051578;28;20200;-71
2024/03/06 07:40:33;;;;;;;750.23;710.13;;;7.20;99.90;;;;;;5051511;28;20172;-70
2024/03/06 07:42:59;;;;;;;671.20;635.90;;;7.20;99.90;;;;;;5051508;28;20177;-71
2024/03/06 07:45:26;;;;;;;713.10;676.83;;;7.30;99.90;;;;;;5051541;28;20196;-70
2024/03/06 07:47:52;;;;;;;1021.70;953.30;;;7.40;99.90;;;;;;5051609;28;20466;-71
2024/03/06 07:50:20;;;;;;;1001.53;931.87;;;7.50;99.90;;;;;;5051476;28;20831;-71
2024/03/06 07:52:46;;;;;;;690.70;654.37;;;7.50;99.90;;;;;;5051174;28;20187;-71
2024/03/06 07:55:12;;;;;;;698.07;661.30;;;7.60;99.90;;;;;;5051260;28;20781;-71
2024/03/06 07:57:38;;;;;;;711.70;675.57;;;7.70;99.90;;;;;;5051323;28;20468;-71
2024/03/06 08:00:14;;;;;;;833.40;785.80;;;7.70;99.90;;;;;;5051299;28;20415;-70
2024/03/06 08:02:42;;;;;;;685.07;649.80;;;7.80;99.90;;;;;;5051220;28;20242;-71
2024/03/06 08:05:12;;;;;;;723.67;685.97;;;7.80;99.90;;;;;;5051269;28;20424;-71
2024/03/06 08:07:41;;;;;;;728.50;690.03;;;7.80;99.90;;;;;;5051199;28;20412;-70
2024/03/06 08:10:13;;;;;;;734.03;695.23;;;7.90;99.90;;;;;;5051035;28;20513;-71
2024/03/06 08:12:42;;;;;;;731.63;692.97;;;7.90;99.90;;;;;;5051113;28;20408;-71
2024/03/06 08:15:11;;;;;;;677.13;640.90;;;7.80;99.90;;;;;;5051239;28;20874;-71
2024/03/06 08:17:43;;;;;;;714.37;676.27;;;7.90;99.90;;;;;;5051226;28;20461;-71
2024/03/06 08:20:10;;;;;;;706.07;668.40;;;7.90;99.90;;;;;;5051152;28;20412;-71
2024/03/06 08:22:39;;;;;;;712.23;675.43;;;7.90;99.90;;;;;;5050934;28;20434;-70
2024/03/06 08:25:10;;;;;;;699.33;663.23;;;7.80;99.90;;;;;;5051281;28;20526;-71
2024/03/06 08:27:37;;;;;;;732.03;693.33;;;7.90;99.90;;;;;;5051150;28;20407;-71
2024/03/06 08:30:08;;;;;;;887.40;832.93;;;7.90;99.90;;;;;;5051211;28;20399;-71
2024/03/06 08:32:35;;;;;;;705.80;669.10;;;8.00;99.90;;;;;;5050829;28;20416;-71
2024/03/06 08:35:07;;;;;;;698.57;662.57;;;8.00;99.90;;;;;;5052012;28;20476;-70
2024/03/06 08:37:33;;;;;;;742.97;702.93;;;8.00;99.90;;;;;;5054984;28;20967;-71
2024/03/06 08:40:00;;;;;;;729.93;692.17;;;7.80;99.90;;;;;;5054965;28;20437;-71
2024/03/06 08:42:26;;;;;;;768.00;726.43;;;8.00;99.90;;;;;;5054795;28;20402;-71
2024/03/06 08:44:52;;;;;;;728.47;689.67;;;8.20;99.90;;;;;;5054426;28;20453;-70
2024/03/06 08:47:18;;;;;;;902.97;850.10;;;8.20;99.90;;;;;;5054598;28;20776;-72
2024/03/06 08:49:43;;;;;;;775.00;732.53;;;8.30;99.90;;;;;;5054690;28;20177;-71
2024/03/06 08:52:09;;;;;;;715.17;677.50;;;8.30;99.90;;;;;;5054878;28;20636;-71
2024/03/06 08:54:35;;;;;;;762.33;721.47;;;8.20;99.90;;;;;;5054485;28;20184;-70
2024/03/06 08:57:02;;;;;;;744.17;704.30;;;8.40;99.90;;;;;;5054543;28;20494;-70
2024/03/06 08:59:28;;;;;;;723.77;685.00;;;8.50;97.30;;;;;;5054437;28;21104;-71
2024/03/06 09:01:55;;;;;;;784.93;742.50;;;8.60;95.70;;;;;;5054375;28;20470;-70
2024/03/06 09:04:21;;;;;;;746.87;705.60;;;8.70;94.50;;;;;;5054134;28;20455;-71
2024/03/06 09:06:47;;;;;;;815.13;770.33;;;8.80;93.90;;;;;;5054262;28;20823;-70
2024/03/06 09:09:14;;;;;;;797.13;754.23;;;8.90;91.10;;;;;;5049924;28;20424;-70
2024/03/06 09:11:41;;;;;;;767.83;725.27;;;9.10;86.00;;;;;;5054438;28;20249;-71
2024/03/06 09:14:09;;;;;;;880.10;828.17;;;9.10;88.60;;;;;;5053800;28;20796;-70
2024/03/06 09:16:35;;;;;;;920.03;864.40;;;9.10;72.70;;;;;;5053807;28;20484;-71
2024/03/06 09:19:01;;;;;;;809.73;764.87;;;9.10;74.60;;;;;;5054082;28;20440;-70
2024/03/06 09:21:27;;;;;;;800.27;755.07;;;9.20;77.50;;;;;;5054347;28;20443;-71
2024/03/06 09:23:53;;;;;;;793.60;750.10;;;9.10;95.50;;;;;;5052835;28;20192;-71
2024/03/06 09:26:20;;;;;;;836.07;788.30;;;9.20;77.60;;;;;;5063682;28;20420;-71
2024/03/06 09:28:46;;;;;;;837.13;789.43;;;9.40;81.00;;;;;;5073342;28;20171;-72
2024/03/06 09:31:12;;;;;;;866.43;816.97;;;9.60;81.40;;;;;;5073190;28;20495;-71
2024/03/06 09:33:39;;;;;;;857.30;807.00;;;9.80;75.20;;;;;;5072931;28;20683;-72
2024/03/06 09:36:05;;;;;;;836.83;788.43;;;10.00;68.40;;;;;;5073110;28;20435;-70
2024/03/06 09:38:31;;;;;;;853.90;805.40;;;9.90;68.70;;;;;;5073135;28;20461;-72
2024/03/06 09:40:59;;;;;;;886.00;835.67;;;9.90;70.90;;;;;;5073541;28;20414;-71
2024/03/06 09:43:25;;;;;;;835.30;787.80;;;10.00;77.90;;;;;;5072759;28;20639;-70
2024/03/06 09:45:51;;;;;;;862.63;812.97;;;9.90;74.50;;;;;;5072168;28;20489;-72
2024/03/06 09:48:21;;;;;;;961.20;899.63;;;10.20;67.30;;;;;;5071933;28;20176;-73
2024/03/06 09:50:50;;;;;;;883.03;832.83;;;10.10;54.10;;;;;;5073309;28;20406;-72
2024/03/06 09:53:16;;;;;;;882.23;831.30;;;10.30;54.10;;;;;;5072241;28;20436;-71
2024/03/06 09:55:42;;;;;;;912.20;859.33;;;10.40;59.20;;;;;;5073162;28;20454;-73
2024/03/06 09:58:08;;;;;;;904.63;851.37;;;10.60;57.70;;;;;;5072855;28;20982;-71
2024/03/06 10:00:35;;;;;;;951.07;893.07;;;10.60;53.10;;;;;;5072729;28;20441;-72
2024/03/06 10:03:05;;;;;;;925.53;871.27;;;10.60;52.60;;;;;;5072638;28;20415;-72
2024/03/06 10:05:33;;;;;;;946.13;888.83;;;10.50;55.00;;;;;;5072851;28;20485;-71
2024/03/06 10:08:00;;;;;;;859.30;809.10;;;10.50;56.60;;;;;;5072484;28;20412;-71
2024/03/06 10:10:26;;;;;;;889.03;839.17;;;10.50;58.70;;;;;;5072759;28;20426;-71
2024/03/06 10:12:52;;;;;;;895.30;844.40;;;10.50;50.90;;;;;;5072529;28;20419;-70
2024/03/06 10:15:18;;;;;;;912.30;859.50;;;10.50;51.80;;;;;;5072852;28;20459;-70
2024/03/06 10:17:47;;;;;;;906.17;852.43;;;10.60;50.30;;;;;;5072641;28;20517;-70
2024/03/06 10:20:21;;;;;;;942.73;886.70;;;10.70;48.20;;;;;;5072624;28;20417;-71
2024/03/06 10:22:51;;;;;;;1081.13;999.37;;;10.80;45.00;;;;;;5071860;28;20412;-71
2024/03/06 10:25:21;;;;;;;944.83;888.53;;;11.00;40.80;;;;;;5072197;28;20432;-71
2024/03/06 10:28:09;;;;;;;946.33;890.33;;;11.20;38.80;;;;;;5072130;28;20412;-71
2024/03/06 10:30:45;;;;;;;927.23;873.53;;;11.30;39.20;;;;;;5071881;28;20409;-70
2024/03/06 10:33:15;;;;;;;963.83;906.23;;;11.10;29.90;;;;;;5071736;28;20407;-71
2024/03/06 10:35:42;;;;;;;963.97;906.07;;;11.10;33.50;;;;;;5072100;28;20939;-70
2024/03/06 10:38:08;;;;;;;949.07;893.07;;;11.30;35.70;;;;;;5071894;28;20465;-71
2024/03/06 10:40:36;;;;;;;975.37;916.73;;;11.50;37.20;;;;;;5072283;28;20405;-71
2024/03/06 10:43:05;;;;;;;973.53;914.27;;;11.80;31.20;;;;;;5071610;28;20456;-71
2024/03/06 10:45:51;;;;;;;970.77;911.37;;;12.00;31.40;;;;;;5071661;28;20440;-71
2024/03/06 10:48:18;;;;;;;1014.90;950.93;;;12.30;28.30;;;;;;5071715;28;20410;-70
2024/03/06 10:50:45;;;;;;;999.97;938.80;;;12.50;28.20;;;;;;5072057;28;20407;-71
2024/03/06 10:53:13;;;;;;;1145.07;999.90;;;12.80;23.00;;;;;;5070836;28;20894;-71
2024/03/06 10:55:39;;;;;;;1006.13;944.60;;;13.00;19.10;;;;;;5071905;28;20423;-72
2024/03/06 10:58:09;;;;;;;972.47;914.67;;;13.20;15.70;;;;;;5071726;28;20449;-71
2024/03/06 11:00:39;;;;;;;970.10;911.67;;;13.40;9.30;;;;;;5071175;28;20397;-69
2024/03/06 11:03:11;;;;;;;951.37;895.57;;;13.60;9.60;;;;;;5071304;28;20439;-70
2024/03/06 11:05:41;;;;;;;981.80;920.87;;;13.60;4.40;;;;;;5071603;28;20437;-70
2024/03/06 11:08:08;;;;;;;1176.13;999.90;;;13.60;1.00;;;;;;5071755;28;20410;-71
2024/03/06 11:10:35;;;;;;;950.23;893.37;;;13.70;1.00;;;;;;5071629;28;20400;-71
2024/03/06 11:13:02;;;;;;;1056.87;965.73;;;13.70;1.00;;;;;;5070689;28;20444;-69
2024/03/06 11:15:28;;;;;;;951.40;895.03;;;13.80;1.00;;;;;;5071577;28;20427;-70
2024/03/06 11:17:54;;;;;;;1159.03;999.90;;;13.80;1.00;;;;;;5071398;28;20463;-71
2024/03/06 11:20:22;;;;;;;945.63;887.97;;;13.90;1.00;;;;;;5071536;28;20411;-72
2024/03/06 11:22:59;;;;;;;1061.80;985.87;;;13.90;1.00;;;;;;5070471;28;20926;-70
2024/03/06 11:25:55;;;;;;;903.00;850.10;;;13.80;1.00;;;;;;5071505;28;20453;-70
2024/03/06 11:28:26;;;;;;;919.00;865.07;;;13.90;1.00;;;;;;5070904;28;20496;-72
2024/03/06 11:30:59;;;;;;;924.93;870.13;;;14.00;1.00;;;;;;5071610;28;20454;-71
2024/03/06 11:33:45;;;;;;;856.57;809.00;;;14.10;1.00;;;;;;5070724;28;20410;-71
2024/03/06 11:36:30;;;;;;;801.57;758.23;;;13.90;1.00;;;;;;5070886;28;20504;-71
2024/03/06 11:39:05;;;;;;;796.77;751.83;;;14.00;1.00;;;;;;5071209;28;20791;-70
2024/03/06 11:41:35;;;;;;;822.10;777.20;;;14.10;1.00;;;;;;5071563;28;20901;-71
2024/03/06 11:44:01;;;;;;;851.37;803.27;;;14.60;1.00;;;;;;5070150;28;20407;-71
2024/03/06 11:46:47;;;;;;;863.00;814.30;;;14.60;1.00;;;;;;5071195;28;20412;-70
2024/03/06 11:49:21;;;;;;;611.87;580.40;;;15.20;1.00;;;;;;5071289;28;20784;-72
2024/03/06 11:51:48;;;;;;;422.60;400.87;;;16.00;1.00;;;;;;5070892;28;20824;-71
2024/03/06 11:54:14;;;;;;;234.83;220.40;;;17.00;1.00;;;;;;5070573;28;20431;-71
2024/03/06 11:56:41;;;;;;;307.00;289.57;;;17.70;1.00;;;;;;5071185;28;20476;-71
2024/03/06 11:59:07;;;;;;;79.93;58.33;;;18.30;1.00;;;;;;5070521;28;20401;-71
2024/03/06 12:01:36;;;;;;;76.13;45.57;;;18.80;1.00;;;;;;5071245;28;20392;-68
2024/03/06 12:04:04;;;;;;;84.77;63.70;;;19.70;1.00;;;;;;5070605;28;20430;-69
2024/03/06 12:06:31;;;;;;;90.50;72.87;;;20.70;1.00;;;;;;5070844;28;20435;-72
2024/03/06 12:08:58;;;;;;;125.40;113.93;;;21.40;1.00;;;;;;5070935;28;20495;-69
2024/03/06 12:11:25;;;;;;;121.00;109.23;;;21.90;1.00;;;;;;5074277;28;20416;-70
2024/03/06 12:13:51;;;;;;;109.60;98.47;;;22.80;1.00;;;;;;5074040;28;20446;-70
2024/03/06 12:16:17;;;;;;;238.03;223.23;;;22.50;1.00;;;;;;5074974;28;20376;-69